createdAt,value
2018-06-19T00:01:20.346Z,99.90
2018-06-19T00:04:04.412Z,99.90
2018-06-19T00:06:59.250Z,99.90
2018-06-19T00:09:30.262Z,99.90
2018-06-19T00:12:01.050Z,99.90
2018-06-19T00:14:39.529Z,99.90
2018-06-19T00:17:16.813Z,99.90
2018-06-19T00:19:58.364Z,99.90
2018-06-19T00:22:31.132Z,99.90
2018-06-19T00:25:06.414Z,99.90
2018-06-19T00:27:41.999Z,99.90
2018-06-19T00:30:17.852Z,99.90
2018-06-19T00:32:52.548Z,99.90
2018-06-19T00:35:24.822Z,99.90
2018-06-19T00:37:59.091Z,99.90
2018-06-19T00:40:33.790Z,99.90
2018-06-19T00:45:50.477Z,99.90
2018-06-19T00:48:21.309Z,99.90
2018-06-19T00:50:56.145Z,99.90
2018-06-19T00:53:27.578Z,99.90
2018-06-19T00:56:08.935Z,99.90
2018-06-19T00:58:41.763Z,99.90
2018-06-19T01:01:13.573Z,99.90
2018-06-19T01:03:44.013Z,99.90
2018-06-19T01:06:15.667Z,99.90
2018-06-19T01:08:46.923Z,99.90
2018-06-19T01:11:19.296Z,99.90
2018-06-19T01:13:54.698Z,99.90
2018-06-19T01:16:28.020Z,99.90
2018-06-19T01:19:00.282Z,99.90
2018-06-19T01:21:34.162Z,99.90
2018-06-19T01:24:10.479Z,99.90
2018-06-19T01:26:46.297Z,99.90
2018-06-19T01:29:22.908Z,99.90
2018-06-19T01:36:43.424Z,99.90
2018-06-19T01:42:44.126Z,99.90
2018-06-19T01:55:58.257Z,99.90
2018-06-19T01:58:45.706Z,99.90
2018-06-19T02:01:44.378Z,99.90
2018-06-19T02:07:17.675Z,99.90
2018-06-19T02:10:25.235Z,99.90
2018-06-19T02:13:57.081Z,99.90
2018-06-19T02:16:32.313Z,99.90
2018-06-19T02:19:14.723Z,99.90
2018-06-19T02:21:55.864Z,99.90
2018-06-19T02:24:27.773Z,99.90
2018-06-19T02:27:06.009Z,99.90
2018-06-19T02:33:57.315Z,99.90
2018-06-19T02:36:33.692Z,99.90
2018-06-19T02:39:39.963Z,99.90
2018-06-19T02:42:27.998Z,99.90
2018-06-19T02:45:00.360Z,99.90
2018-06-19T02:47:50.133Z,99.90
2018-06-19T02:57:18.286Z,99.90
2018-06-19T03:05:39.695Z,99.90
2018-06-19T03:08:34.293Z,99.90
2018-06-19T03:11:13.406Z,99.90
2018-06-19T03:17:08.657Z,99.90
2018-06-19T03:19:51.773Z,99.90
2018-06-19T03:22:37.077Z,99.90
2018-06-19T03:25:39.420Z,99.90
2018-06-19T03:28:29.006Z,99.90
2018-06-19T03:37:42.062Z,99.90
2018-06-19T03:40:14.345Z,99.90
2018-06-19T03:46:26.638Z,99.90
2018-06-19T03:49:06.690Z,99.90
2018-06-19T03:59:40.162Z,99.90
2018-06-19T04:02:12.895Z,99.90
2018-06-19T04:05:12.355Z,99.90
2018-06-19T04:08:17.115Z,99.90
2018-06-19T04:16:00.294Z,99.90
2018-06-19T04:18:58.505Z,99.90
2018-06-19T04:22:41.945Z,99.90
2018-06-19T04:25:47.671Z,99.90
2018-06-19T04:55:52.584Z,99.90
2018-06-19T04:58:47.438Z,99.90
2018-06-19T05:01:40.276Z,99.90
2018-06-19T05:04:54.074Z,99.90
2018-06-19T05:07:37.509Z,99.90
2018-06-19T05:10:20.878Z,99.90
2018-06-19T05:13:03.830Z,99.90
2018-06-19T05:15:45.803Z,99.90
2018-06-19T05:31:55.641Z,99.90
2018-06-19T05:34:53.139Z,99.90
2018-06-19T05:37:41.478Z,99.90
2018-06-19T05:40:50.653Z,99.90
2018-06-19T05:45:35.801Z,99.90
2018-06-19T09:52:04.960Z,99.90
2018-06-19T09:54:46.183Z,99.90
2018-06-19T09:57:38.314Z,99.90
2018-06-19T10:00:35.599Z,99.90
2018-06-19T10:03:12.756Z,99.90
2018-06-19T10:05:50.954Z,99.90
2018-06-19T10:08:29.650Z,99.90
2018-06-19T10:11:02.471Z,99.90
2018-06-19T10:13:34.975Z,99.70
2018-06-19T10:16:12.637Z,98.80
2018-06-19T10:18:44.690Z,98.80
2018-06-19T10:21:19.863Z,98.80
2018-06-19T10:23:56.863Z,99.30
2018-06-19T10:33:24.139Z,99.90
2018-06-19T10:36:02.889Z,99.90
2018-06-19T10:39:05.913Z,99.90
2018-06-19T10:42:10.262Z,99.90
2018-06-19T10:44:45.826Z,99.90
2018-06-19T10:47:17.530Z,99.90
2018-06-19T10:49:54.234Z,99.40
2018-06-19T10:52:31.701Z,99.50
2018-06-19T10:55:03.296Z,99.90
2018-06-19T10:58:12.053Z,99.90
2018-06-19T11:00:50.245Z,99.90
2018-06-19T11:03:21.218Z,99.90
2018-06-19T11:08:29.765Z,99.90
2018-06-19T11:11:20.016Z,99.90
2018-06-19T11:14:10.390Z,99.60
2018-06-19T11:17:09.473Z,98.80
2018-06-19T11:19:51.944Z,98.30
2018-06-19T11:25:49.844Z,96.70
2018-06-19T11:28:24.957Z,96.70
2018-06-19T11:37:37.038Z,97.50
2018-06-19T11:40:08.164Z,98.10
2018-06-19T11:42:43.780Z,98.50
2018-06-19T11:45:15.780Z,98.70
2018-06-19T11:47:47.060Z,99.40
2018-06-19T11:50:17.617Z,99.90
2018-06-19T11:53:07.081Z,99.90
2018-06-19T11:55:45.457Z,99.90
2018-06-19T11:58:15.335Z,99.60
2018-06-19T12:00:46.352Z,99.10
2018-06-19T12:03:17.399Z,98.70
2018-06-19T12:05:48.310Z,97.90
2018-06-19T12:08:18.391Z,97.50
2018-06-19T12:13:18.867Z,96.40
2018-06-19T12:18:19.997Z,95.90
2018-06-19T12:20:54.490Z,94.70
2018-06-19T12:23:32.802Z,94.80
2018-06-19T12:26:25.095Z,94.90
2018-06-19T12:28:55.239Z,93.80
2018-06-19T12:34:02.316Z,93.40
2018-06-19T12:36:33.030Z,94.60
2018-06-19T12:39:04.727Z,94.80
2018-06-19T12:41:44.917Z,95.40
2018-06-19T12:44:18.252Z,95.60
2018-06-19T12:46:48.703Z,95.70
2018-06-19T12:49:30.396Z,95.80
2018-06-19T12:52:12.480Z,95.80
2018-06-19T12:55:12.268Z,95.30
2018-06-19T12:57:43.751Z,95.70
2018-06-19T13:00:17.569Z,95.90
2018-06-19T13:05:45.490Z,95.70
2018-06-19T13:08:17.042Z,96.20
2018-06-19T13:10:57.369Z,96.20
2018-06-19T13:13:40.902Z,96.40
2018-06-19T13:19:44.059Z,95.60
2018-06-19T13:25:00.974Z,94.80
2018-06-19T13:27:33.692Z,94.70
2018-06-19T13:33:48.051Z,93.90
2018-06-19T13:36:21.217Z,93.60
2018-06-19T13:38:51.639Z,94.10
2018-06-19T13:41:34.177Z,94.80
2018-06-19T13:44:15.706Z,94.70
2018-06-19T13:46:45.650Z,94.70
2018-06-19T13:49:16.306Z,95.40
2018-06-19T13:51:49.511Z,94.20
2018-06-19T13:57:09.384Z,94.30
2018-06-19T13:59:42.126Z,94.00
2018-06-19T14:02:12.956Z,94.10
2018-06-19T14:04:42.564Z,94.00
2018-06-19T14:07:18.001Z,93.80
2018-06-19T14:10:00.874Z,94.10
2018-06-19T14:15:46.798Z,94.60
2018-06-19T14:18:40.721Z,94.60
2018-06-19T14:21:18.004Z,94.60
2018-06-19T14:23:55.065Z,94.50
2018-06-19T14:26:38.101Z,94.40
2018-06-19T14:29:09.380Z,94.10
2018-06-19T14:32:10.883Z,93.90
2018-06-19T14:35:23.147Z,93.70
2018-06-19T14:38:00.161Z,92.90
2018-06-19T14:40:31.206Z,91.50
2018-06-19T14:43:01.343Z,91.10
2018-06-19T14:45:32.844Z,91.30
2018-06-19T14:48:03.073Z,91.60
2018-06-19T14:53:32.382Z,91.50
2018-06-19T14:56:15.684Z,91.80
2018-06-19T14:58:53.858Z,91.60
2018-06-19T15:02:15.500Z,91.10
2018-06-19T15:04:47.583Z,91.70
2018-06-19T15:07:20.181Z,92.00
2018-06-19T15:10:02.134Z,92.30
2018-06-19T15:12:42.784Z,92.70
2018-06-19T15:17:55.372Z,91.80
2018-06-19T15:20:26.062Z,92.40
2018-06-19T15:22:56.802Z,92.80
2018-06-19T15:25:27.109Z,93.40
2018-06-19T15:27:56.789Z,93.40
2018-06-19T15:30:26.755Z,93.50
2018-06-19T15:32:56.375Z,93.10
2018-06-19T15:35:25.885Z,92.90
2018-06-19T15:40:26.022Z,92.80
2018-06-19T15:42:55.722Z,92.90
2018-06-19T15:45:36.762Z,92.90
2018-06-19T15:48:19.508Z,92.30
2018-06-19T15:50:50.305Z,91.80
2018-06-19T15:53:20.370Z,91.80
2018-06-19T15:55:52.533Z,92.20
2018-06-19T15:58:22.680Z,92.30
2018-06-19T16:00:53.089Z,91.90
2018-06-19T16:03:49.967Z,91.50
2018-06-19T16:06:23.372Z,91.60
2018-06-19T16:09:36.406Z,91.80
2018-06-19T16:18:45.535Z,91.10
2018-06-19T16:21:18.610Z,91.60
2018-06-19T16:26:20.452Z,91.50
2018-06-19T16:28:55.968Z,91.00
2018-06-19T16:31:29.488Z,90.90
2018-06-19T16:34:05.346Z,91.00
2018-06-19T16:36:40.084Z,91.40
2018-06-19T16:39:15.992Z,91.00
2018-06-19T16:41:49.365Z,89.70
2018-06-19T16:44:23.361Z,89.70
2018-06-19T16:46:58.050Z,89.70
2018-06-19T16:54:48.165Z,90.50
2018-06-19T16:57:17.498Z,90.40
2018-06-19T16:59:48.260Z,91.20
2018-06-19T17:04:51.770Z,91.60
2018-06-19T17:07:22.570Z,91.20
2018-06-19T17:10:25.507Z,90.80
2018-06-19T17:12:57.327Z,91.10
2018-06-19T17:15:34.618Z,91.70
2018-06-19T17:18:14.648Z,91.90
2018-06-19T17:20:48.642Z,92.30
2018-06-19T17:23:23.587Z,91.80
2018-06-19T17:25:55.182Z,91.40
2018-06-19T17:28:34.987Z,91.90
2018-06-19T17:31:15.837Z,92.60
2018-06-19T17:33:54.610Z,92.50
2018-06-19T17:36:26.899Z,92.60
2018-06-19T17:39:04.877Z,92.50
2018-06-19T17:41:40.786Z,92.20
2018-06-19T17:44:26.465Z,91.80
2018-06-19T17:47:01.637Z,91.90
2018-06-19T17:49:32.301Z,92.30
2018-06-19T17:52:04.334Z,92.90
2018-06-19T17:54:38.145Z,93.00
2018-06-19T17:57:08.196Z,92.90
2018-06-19T18:02:14.301Z,93.70
2018-06-19T18:04:48.717Z,93.50
2018-06-19T18:07:19.196Z,93.30
2018-06-19T18:15:14.154Z,93.80
2018-06-19T18:17:55.629Z,93.60
2018-06-19T18:20:26.425Z,93.40
2018-06-19T18:22:58.111Z,93.50
2018-06-19T18:25:27.858Z,93.80
2018-06-19T18:28:00.517Z,93.90
2018-06-19T18:30:37.668Z,93.80
2018-06-19T18:33:14.446Z,93.70
2018-06-19T18:38:21.350Z,93.90
2018-06-19T18:40:54.854Z,94.00
2018-06-19T18:43:24.695Z,93.80
2018-06-19T18:45:57.958Z,93.90
2018-06-19T18:48:29.418Z,94.10
2018-06-19T18:51:03.486Z,94.30
2018-06-19T18:53:43.053Z,94.20
2018-06-19T18:57:19.665Z,94.20
2018-06-19T18:59:50.968Z,94.40
2018-06-19T19:05:24.739Z,95.00
2018-06-19T19:08:01.882Z,95.20
2018-06-19T19:10:47.283Z,95.00
2018-06-19T19:13:24.213Z,95.00
2018-06-19T19:16:00.599Z,95.20
2018-06-19T19:21:07.317Z,95.30
2018-06-19T19:26:15.992Z,95.30
2018-06-19T19:28:52.487Z,95.30
2018-06-19T19:39:30.747Z,95.70
2018-06-19T19:42:10.495Z,95.90
2018-06-19T19:44:59.556Z,95.90
2018-06-19T19:47:41.730Z,96.20
2018-06-19T19:50:16.606Z,96.10
2018-06-19T19:53:25.960Z,96.00
2018-06-19T19:56:11.440Z,96.30
2018-06-19T19:58:56.317Z,96.20
2018-06-19T20:01:35.458Z,96.10
2018-06-19T20:04:12.891Z,96.30
2018-06-19T20:06:47.817Z,96.40
2018-06-19T20:09:19.949Z,96.40
2018-06-19T20:12:09.672Z,96.60
2018-06-19T20:14:54.630Z,96.90
2018-06-19T20:17:28.660Z,97.00
2018-06-19T20:19:59.414Z,97.10
2018-06-19T20:22:31.739Z,97.40
2018-06-19T20:25:02.321Z,97.40
2018-06-19T20:27:35.713Z,97.60
2018-06-19T20:30:10.544Z,97.50
2018-06-19T20:32:41.841Z,97.60
2018-06-19T20:35:13.673Z,96.90
2018-06-19T20:37:49.256Z,96.80
2018-06-19T20:40:25.671Z,97.10
2018-06-19T20:43:15.245Z,97.20
2018-06-19T20:45:59.348Z,97.10
2018-06-19T20:48:33.803Z,97.20
2018-06-19T20:51:11.440Z,97.60
2018-06-19T20:53:47.173Z,97.70
2018-06-19T20:56:22.005Z,97.60
2018-06-19T20:58:54.502Z,97.80
2018-06-19T21:01:29.109Z,97.90
2018-06-19T21:04:02.818Z,97.90
2018-06-19T21:06:35.831Z,97.60
2018-06-19T21:09:08.408Z,97.20
2018-06-19T21:11:43.889Z,97.40
2018-06-19T21:14:19.865Z,97.30
2018-06-19T21:16:50.058Z,96.60
2018-06-19T21:19:23.052Z,96.60
2018-06-19T21:21:54.817Z,96.70
2018-06-19T21:24:30.357Z,96.60
2018-06-19T21:27:04.401Z,97.00
2018-06-19T21:29:37.463Z,96.00
2018-06-19T21:32:10.119Z,96.10
2018-06-19T21:34:42.548Z,96.40
2018-06-19T21:37:14.254Z,96.30
2018-06-19T21:39:45.119Z,96.60
2018-06-19T21:42:18.967Z,97.00
2018-06-19T21:44:57.913Z,96.90
2018-06-19T21:47:33.934Z,97.30
2018-06-19T21:50:08.390Z,97.40
2018-06-19T21:52:39.707Z,97.50
2018-06-19T21:55:10.876Z,97.70
2018-06-19T21:57:42.843Z,97.50
2018-06-19T22:00:12.835Z,97.60
2018-06-19T22:02:42.687Z,97.60
2018-06-19T22:05:15.705Z,97.60
2018-06-19T22:07:47.202Z,97.90
2018-06-19T22:10:18.735Z,97.90
2018-06-19T22:12:49.536Z,98.20
2018-06-19T22:15:24.869Z,98.30
2018-06-19T22:18:04.212Z,98.30
2018-06-19T22:20:34.934Z,98.30
2018-06-19T22:23:12.066Z,98.50
2018-06-19T22:25:46.305Z,98.70
2018-06-19T22:28:17.057Z,99.10
2018-06-19T22:30:49.873Z,99.30
2018-06-19T22:33:20.401Z,99.50
2018-06-19T22:35:50.617Z,99.80
2018-06-19T22:38:21.812Z,99.90
2018-06-19T22:40:52.402Z,99.90
2018-06-19T22:43:21.841Z,99.90
2018-06-19T22:45:53.374Z,99.90
2018-06-19T22:48:22.949Z,99.90
2018-06-19T22:50:52.377Z,99.90
2018-06-19T22:53:23.896Z,99.90
2018-06-19T22:55:53.123Z,99.90
2018-06-19T22:58:27.216Z,99.90
2018-06-19T23:01:13.522Z,99.90
2018-06-19T23:03:43.162Z,99.90
2018-06-19T23:06:12.502Z,99.90
2018-06-19T23:08:47.077Z,99.90
2018-06-19T23:11:17.634Z,99.90
2018-06-19T23:13:46.818Z,99.90
2018-06-19T23:16:17.257Z,99.90
2018-06-19T23:18:46.775Z,99.90
2018-06-19T23:21:20.298Z,99.90
2018-06-19T23:23:49.402Z,99.90
2018-06-19T23:26:23.845Z,99.90
2018-06-19T23:28:54.150Z,99.90
2018-06-19T23:31:24.847Z,99.90
2018-06-19T23:33:55.009Z,99.90
2018-06-19T23:36:24.359Z,99.90
2018-06-19T23:38:53.700Z,99.90
2018-06-19T23:41:27.312Z,99.90
2018-06-19T23:43:56.516Z,99.90
2018-06-19T23:46:35.829Z,99.90
2018-06-19T23:49:14.455Z,99.90
2018-06-19T23:51:54.336Z,99.90
2018-06-19T23:54:32.098Z,99.90
2018-06-19T23:57:04.728Z,99.90
2018-06-19T23:59:34.753Z,99.90
